Canton, Ohio
Current Conditions -  °F | °C
As of 12:51 PM on Thursday 30 Oct 2014 (Local Time) from KCAK Reporting Station
Overcast Overcast  
Wind Chill: 46°   Ceiling: 2200
Heat Index: 48°   Visibility: 10mi
Dew Point: 38°   Wind: 5mph
Humidity: 68%   Direction: 320°NW
Pressure: 30.11"   Gusts: NA
Location:  40.8°N, 81.37°W
Report Text: KCAK 301651Z 32004KT 10SM BKN022 OVC042 09/03 A3011 RMK AO2 SLP201 T00890033
Loading
Personal Weather Stations






























Interactive Weather Map
Tropical Storm Tracking
New forecast layout! Learn more

10-Day Weather Forecast

Advertisements
Track Severe Weather on mobile